Startpagina
METAR-TAF:

METAR-TAF

Vliegvelden :

Al-Ubayyid, Soedan

breedte: 13-10N, lengte: 030-14E, hoogte: 574 m

METAR: ontbreekt

Tijdstip: 08:59 (05:59 UTC)

Verwachting

Dit bericht is 59 minuten geleden gemaakt, om 05:00 UTC
Verwachting geldig van 16 om 06 UTC tot 17 om 12 UTC
Wind 10 kt uit het zuidzuidwesten met uitschieters tot 20 kt
Zicht 10 km of meer
geen wolken onder 1500 m en geen cumulonimbus
Tijdelijke
van 16 om 10 UTC tot 16 om 18 UTC
Zicht 10 km of meer
Weinig wolken op 4000 ft
Verspreide wolken op 14000 ft

TAF: HSOB 160500Z 1606/1712 20010G20KT CAVOK TEMPO 1610/1618 9999 FEW040 SCT140

Waarnemingen en weersverwachtingen van meer dan 4000 vliegvelden (METAR en TAF).

De beschikbare stations zijn de gele en rode punten op de kaart.

Ga met uw muis naar het station om de naam te zien.

Klik dan om waarnemingen en weersverwachtingen te zien.

kaart wijzigen: klik op de groene knoppen met een zwart kruis om in te zoomen, op de groene knop met een streepje om uit te zoomen of op de groene pijlen voor aangrenzende kaarten.


METAR-TAF: